Fletcher, Ohio
Current Conditions -  °F | °C
As of 7:56 AM on Sunday 21 Dec 2014 (Local Time) from KDAY Reporting Station
Haze Haze  
Wind Chill: 17°   Ceiling: Unl
Heat Index: 23°   Visibility: 4mi
Dew Point: 19°   Wind: 5mph
Humidity: 85%   Direction: 130°SE
Pressure: 30.3"   Gusts: NA
Location:  40.14°N, 84.11°W
Report Text: KDAY 211256Z 13004KT 4SM BR FEW018 SCT021 SCT200 M05/M07 A3030 RMK AO2 SLP274 T10501072
Loading
Personal Weather Stations






























Interactive Weather Map New forecast layout! Learn more

10-Day Weather Forecast

Advertisements
Track Severe Weather on mobile